Layton City
, Layton
Last Weather Update:10/29/2011 11:00:00 PM
Date
ETo
ETc
Rain
Irrigation
Req
Temp
Max
Temp
Min
Temp
Avg
Avg RH
Avg Wind
Avg Solar
inches
inches
incehs
inches
F
F
F
%
%
watts/m2
9/1/2011 0.19" 0.13" 0.01" 0.12" 82.7° 55.2° 69.5° 44.2% 2.7 MPH 254.6w/m2
9/2/2011 0.17" 0.12" 0.00" 0.12" 79.6° 52.8° 66.0° 41.2% 2.2 MPH 274.5w/m2
9/3/2011 0.18" 0.13" 0.00" 0.13" 83.0° 53.8° 67.8° 34.3% 2.0 MPH 278.5w/m2
9/4/2011 0.18" 0.13" 0.00" 0.13" 87.5° 54.3° 70.3° 33.7% 2.0 MPH 275.5w/m2
9/5/2011 0.13" 0.09" 0.00" 0.09" 82.5° 58.0° 69.7° 39.7% 2.9 MPH 150.0w/m2
9/6/2011 0.00" 0.00" 0.00" 0.00" 68.9° 64.5° 67.2° 53.3% 1.2 MPH 0.0w/m2
9/7/2011 0.18" 0.12" 0.00" 0.12" 80.5° 55.8° 69.1° 45.8% 2.7 MPH 245.5w/m2
9/8/2011 0.00" 0.00" 0.00" 0.00" 75.3° 69.8° 73.1° 28.2% 2.5 MPH 0.0w/m2
9/9/2011 0.00" 0.00" 0.00" 0.00" 74.2° 63.0° 70.0° 35.6% 2.2 MPH 0.0w/m2
9/10/2011 0.17" 0.11" 0.00" 0.11" 82.3° 54.9° 68.1° 43.9% 2.5 MPH 226.6w/m2
9/11/2011 0.14" 0.09" 0.01" 0.08" 78.3° 53.6° 67.0° 50.0% 3.6 MPH 184.1w/m2
9/12/2011 0.15" 0.10" 0.00" 0.10" 79.4° 55.7° 66.4° 52.5% 2.2 MPH 229.3w/m2
9/13/2011 0.16" 0.10" 0.00" 0.10" 80.0° 54.4° 67.5° 47.0% 1.8 MPH 256.9w/m2
9/14/2011 0.00" 0.00" 0.00" 0.00" 65.5° 59.8° 62.1° 58.7% 0.5 MPH 0.0w/m2
9/15/2011 0.00" 0.00" 0.00" 0.00" 66.6° 58.4° 62.6° 55.8% 2.0 MPH 0.0w/m2
9/16/2011 0.00" 0.00" 0.00" 0.00" 66.1° 60.5° 62.5° 53.2% 1.1 MPH 0.0w/m2
9/17/2011 0.13" 0.08" 0.73" -0.50" 71.1° 51.8° 60.3° 68.6% 2.4 MPH 189.5w/m2
9/18/2011 0.14" 0.09" 0.00" 0.09" 76.5° 50.6° 62.4° 50.1% 1.3 MPH 237.9w/m2
9/19/2011 0.15" 0.10" 0.00" 0.10" 81.1° 49.0° 65.8° 42.3% 2.0 MPH 250.1w/m2
9/20/2011 0.00" 0.00" 0.00" 0.00" 66.7° 61.1° 62.8° 41.3% 2.0 MPH 0.0w/m2
9/21/2011 0.00" 0.00" 0.00" 0.00" 64.0° 52.0° 57.1° 55.4% 1.5 MPH 0.0w/m2
9/22/2011 0.00" 0.00" 0.00" 0.00" 63.0° 57.1° 59.9° 51.2% 1.7 MPH 0.0w/m2
9/23/2011 0.00" 0.00" 0.00" 0.00" 61.4° 56.0° 58.4° 51.6% 1.6 MPH 0.0w/m2
9/24/2011 0.00" 0.00" 0.00" 0.00" 64.5° 56.8° 60.4° 40.1% 1.4 MPH 0.0w/m2
9/25/2011 0.00" 0.00" 0.00" 0.00" 62.9° 58.0° 60.0° 42.2% 2.1 MPH 0.0w/m2
9/26/2011 0.00" 0.00" 0.00" 0.00" 63.6° 58.7° 60.9° 44.9% 2.2 MPH 0.0w/m2
9/27/2011 0.13" 0.08" 0.02" 0.06" 84.0° 51.9° 66.6° 45.0% 1.3 MPH 207.2w/m2
9/28/2011 0.00" 0.00" 0.00" 0.00" 63.5° 58.4° 60.8° 53.4% 1.8 MPH 0.0w/m2
9/29/2011 0.00" 0.00" 0.00" 0.00" 65.5° 60.9° 63.4° 43.8% 2.5 MPH 0.0w/m2
9/30/2011 0.00" 0.00" 0.00" 0.00" 64.4° 60.6° 62.6° 50.8% 1.7 MPH 0.0w/m2
Totals: 2.18" 1.46" 0.77" 0.84" 87.5° 49.0° 64.7° 46.6% 2.0 MPH 108.7w/m2